PRIVATE WETTERSTATION BILLIGHEIM-ALLFELD                       ZURCK
Wetterdaten: Montag, 11.12.2017
Datum Zeit Temp. A. Temp. A. min Temp. A. max Feuchte A. Luftdruck Regen Wind Richtung Richtung Sonnenschein ET Solar Taupunkt Windchill Windben Empfang
11.12.2017 00:00 4,7 C 4,7 C 4,8 C 86 % 986,0 hPa 0,0 l/m 11,3 km/h (2 Bft) S 180 0 min 0,025 mm 0 W/m 2,6 C 0,9 C 22,5 km/h (4 Bft) 100 %
11.12.2017 00:10 4,5 C 4,5 C 4,7 C 87 % 986,3 hPa 0,0 l/m 9,7 km/h (2 Bft) S 180 0 min 0,000 mm 0 W/m 2,5 C 1,7 C 19,3 km/h (3 Bft) 100 %
11.12.2017 00:20 4,7 C 4,6 C 4,7 C 87 % 986,4 hPa 0,0 l/m 9,7 km/h (2 Bft) S 180 0 min 0,000 mm 0 W/m 2,7 C 2,0 C 24,1 km/h (4 Bft) 100 %
11.12.2017 00:30 4,8 C 4,7 C 4,8 C 86 % 986,5 hPa 0,0 l/m 6,4 km/h (2 Bft) S-SW 202 0 min 0,000 mm 0 W/m 2,7 C 4,8 C 19,3 km/h (3 Bft) 100 %
11.12.2017 00:40 4,8 C 4,7 C 4,8 C 86 % 986,4 hPa 0,0 l/m 8,0 km/h (2 Bft) S-SW 202 0 min 0,000 mm 0 W/m 2,7 C 3,4 C 16,1 km/h (3 Bft) 89 %
11.12.2017 00:50 4,9 C 4,8 C 4,9 C 86 % 986,5 hPa 0,0 l/m 3,2 km/h (1 Bft) S 180 0 min 0,000 mm 0 W/m 2,8 C 4,9 C 17,7 km/h (3 Bft) 100 %
11.12.2017 01:00 5,1 C 4,9 C 5,1 C 86 % 986,6 hPa 0,0 l/m 4,8 km/h (1 Bft) S-SO 157 0 min 0,025 mm 0 W/m 3,0 C 5,1 C 11,3 km/h (2 Bft) 100 %
11.12.2017 01:10 5,0 C 5,0 C 5,1 C 86 % 986,7 hPa 0,0 l/m 6,4 km/h (2 Bft) S-SO 157 0 min 0,000 mm 0 W/m 2,9 C 5,0 C 17,7 km/h (3 Bft) 100 %
11.12.2017 01:20 4,9 C 4,9 C 5,0 C 86 % 986,8 hPa 0,0 l/m 6,4 km/h (2 Bft) S 180 0 min 0,000 mm 0 W/m 2,8 C 4,9 C 14,5 km/h (3 Bft) 100 %
11.12.2017 01:30 4,8 C 4,8 C 4,9 C 87 % 986,8 hPa 0,0 l/m 4,8 km/h (1 Bft) S 180 0 min 0,000 mm 0 W/m 2,8 C 4,8 C 14,5 km/h (3 Bft) 100 %
11.12.2017 01:40 4,5 C 4,5 C 4,8 C 87 % 986,9 hPa 0,0 l/m 4,8 km/h (1 Bft) S 180 0 min 0,000 mm 0 W/m 2,5 C 4,5 C 8,0 km/h (2 Bft) 100 %
11.12.2017 01:50 4,2 C 4,2 C 4,5 C 88 % 986,9 hPa 0,0 l/m 3,2 km/h (1 Bft) S-SW 202 0 min 0,000 mm 0 W/m 2,4 C 4,2 C 8,0 km/h (2 Bft) 100 %
11.12.2017 02:00 4,2 C 4,2 C 4,3 C 88 % 986,9 hPa 0,0 l/m 3,2 km/h (1 Bft) S-SW 202 0 min 0,000 mm 0 W/m 2,4 C 4,2 C 11,3 km/h (2 Bft) 100 %
11.12.2017 02:10 4,3 C 4,2 C 4,3 C 90 % 986,8 hPa 0,0 l/m 6,4 km/h (2 Bft) S 180 0 min 0,000 mm 0 W/m 2,8 C 4,3 C 17,7 km/h (3 Bft) 100 %
11.12.2017 02:20 4,3 C 4,3 C 4,3 C 91 % 986,8 hPa 0,2 l/m 8,0 km/h (2 Bft) S 180 0 min 0,000 mm 0 W/m 3,0 C 2,9 C 14,5 km/h (3 Bft) 100 %
11.12.2017 02:30 4,3 C 4,3 C 4,3 C 91 % 986,9 hPa 0,0 l/m 4,8 km/h (1 Bft) S 180 0 min 0,000 mm 0 W/m 3,0 C 4,3 C 14,5 km/h (3 Bft) 100 %
11.12.2017 02:40 4,1 C 4,1 C 4,3 C 90 % 986,8 hPa 0,0 l/m 1,6 km/h (1 Bft) S 180 0 min 0,000 mm 0 W/m 2,6 C 4,1 C 8,0 km/h (2 Bft) 100 %
11.12.2017 02:50 4,1 C 4,1 C 4,1 C 90 % 986,7 hPa 0,0 l/m 0,0 km/h (0 Bft) N 0 0 min 0,000 mm 0 W/m 2,6 C 4,1 C 0,0 km/h (0 Bft) 90 %
11.12.2017 03:00 3,9 C 3,9 C 4,1 C 90 % 986,3 hPa 0,2 l/m 0,0 km/h (0 Bft) S-SO 157 0 min 0,000 mm 0 W/m 2,4 C 3,9 C 4,8 km/h (1 Bft) 100 %
11.12.2017 03:10 3,8 C 3,8 C 3,9 C 90 % 986,5 hPa 0,0 l/m 1,6 km/h (1 Bft) S-SO 157 0 min 0,000 mm 0 W/m 2,3 C 3,8 C 6,4 km/h (2 Bft) 100 %
11.12.2017 03:20 3,7 C 3,7 C 3,8 C 90 % 986,6 hPa 0,0 l/m 0,0 km/h (0 Bft) N 0 0 min 0,000 mm 0 W/m 2,2 C 3,7 C 0,0 km/h (0 Bft) 100 %
11.12.2017 03:30 3,6 C 3,6 C 3,7 C 90 % 986,4 hPa 0,0 l/m 0,0 km/h (0 Bft) N 0 0 min 0,000 mm 0 W/m 2,1 C 3,6 C 0,0 km/h (0 Bft) 100 %
11.12.2017 03:40 3,5 C 3,5 C 3,6 C 90 % 986,5 hPa 0,0 l/m 0,0 km/h (0 Bft) S-SO 157 0 min 0,000 mm 0 W/m 2,0 C 3,5 C 1,6 km/h (1 Bft) 100 %
11.12.2017 03:50 3,6 C 3,5 C 3,6 C 90 % 986,5 hPa 0,0 l/m 0,0 km/h (0 Bft) N 0 0 min 0,000 mm 0 W/m 2,1 C 3,6 C 0,0 km/h (0 Bft) 100 %
11.12.2017 04:00 3,6 C 3,5 C 3,6 C 90 % 986,7 hPa 0,0 l/m 0,0 km/h (0 Bft) N 0 0 min 0,000 mm 0 W/m 2,1 C 3,6 C 0,0 km/h (0 Bft) 100 %
11.12.2017 04:10 3,8 C 3,6 C 3,8 C 90 % 986,7 hPa 0,0 l/m 0,0 km/h (0 Bft) S 180 0 min 0,000 mm 0 W/m 2,3 C 3,8 C 1,6 km/h (1 Bft) 100 %
11.12.2017 04:20 3,8 C 3,8 C 3,9 C 90 % 986,7 hPa 0,0 l/m 0,0 km/h (0 Bft) N 0 0 min 0,000 mm 0 W/m 2,3 C 3,8 C 0,0 km/h (0 Bft) 100 %
11.12.2017 04:30 3,9 C 3,8 C 3,9 C 91 % 986,5 hPa 0,0 l/m 0,0 km/h (0 Bft) N 0 0 min 0,000 mm 0 W/m 2,6 C 3,9 C 0,0 km/h (0 Bft) 100 %
11.12.2017 04:40 3,9 C 3,9 C 3,9 C 91 % 986,6 hPa 0,0 l/m 1,6 km/h (1 Bft) S-SO 157 0 min 0,000 mm 0 W/m 2,6 C 3,9 C 6,4 km/h (2 Bft) 87 %
11.12.2017 04:50 3,9 C 3,9 C 3,9 C 91 % 986,6 hPa 0,0 l/m 1,6 km/h (1 Bft) S-SO 157 0 min 0,000 mm 0 W/m 2,6 C 3,9 C 6,4 km/h (2 Bft) 99 %
11.12.2017 05:00 3,9 C 3,9 C 3,9 C 91 % 986,6 hPa 0,0 l/m 1,6 km/h (1 Bft) S-SO 157 0 min 0,000 mm 0 W/m 2,6 C 3,9 C 4,8 km/h (1 Bft) 98 %
11.12.2017 05:10 3,9 C 3,9 C 3,9 C 91 % 986,5 hPa 0,0 l/m 3,2 km/h (1 Bft) S-SO 157 0 min 0,000 mm 0 W/m 2,6 C 3,9 C 4,8 km/h (1 Bft) 98 %
11.12.2017 05:20 3,8 C 3,8 C 3,9 C 90 % 986,4 hPa 0,0 l/m 1,6 km/h (1 Bft) S-SO 157 0 min 0,000 mm 0 W/m 2,3 C 3,8 C 4,8 km/h (1 Bft) 96 %
11.12.2017 05:30 3,7 C 3,7 C 3,8 C 90 % 985,9 hPa 0,0 l/m 3,2 km/h (1 Bft) S-SO 157 0 min 0,000 mm 0 W/m 2,2 C 3,7 C 6,4 km/h (2 Bft) 98 %
11.12.2017 05:40 3,9 C 3,7 C 3,9 C 91 % 985,7 hPa 0,0 l/m 0,0 km/h (0 Bft) SO 135 0 min 0,000 mm 0 W/m 2,6 C 3,9 C 4,8 km/h (1 Bft) 97 %
11.12.2017 05:50 4,1 C 3,9 C 4,1 C 91 % 985,4 hPa 0,0 l/m 1,6 km/h (1 Bft) SO 135 0 min 0,000 mm 0 W/m 2,8 C 4,1 C 4,8 km/h (1 Bft) 98 %
11.12.2017 06:00 4,3 C 4,1 C 4,3 C 90 % 985,2 hPa 0,0 l/m 0,0 km/h (0 Bft) N 0 0 min 0,000 mm 0 W/m 2,8 C 4,3 C 0,0 km/h (0 Bft) 97 %
11.12.2017 06:10 4,3 C 4,3 C 4,3 C 91 % 985,2 hPa 0,0 l/m 0,0 km/h (0 Bft) N 0 0 min 0,000 mm 0 W/m 3,0 C 4,3 C 0,0 km/h (0 Bft) 97 %
11.12.2017 06:20 4,2 C 4,2 C 4,3 C 90 % 985,1 hPa 0,0 l/m 0,0 km/h (0 Bft) N 0 0 min 0,000 mm 0 W/m 2,7 C 4,2 C 0,0 km/h (0 Bft) 97 %
11.12.2017 06:30 4,1 C 4,1 C 4,2 C 91 % 985,0 hPa 0,0 l/m 0,0 km/h (0 Bft) N 0 0 min 0,000 mm 0 W/m 2,8 C 4,1 C 0,0 km/h (0 Bft) 98 %
11.12.2017 06:40 4,2 C 4,1 C 4,2 C 90 % 984,8 hPa 0,0 l/m 0,0 km/h (0 Bft) SO 135 0 min 0,000 mm 0 W/m 2,7 C 4,2 C 4,8 km/h (1 Bft) 87 %
11.12.2017 06:50 4,2 C 4,1 C 4,2 C 90 % 984,6 hPa 0,0 l/m 1,6 km/h (1 Bft) O-SO 112 0 min 0,000 mm 0 W/m 2,7 C 4,2 C 6,4 km/h (2 Bft) 97 %
11.12.2017 07:00 4,7 C 4,2 C 4,7 C 90 % 984,5 hPa 0,0 l/m 3,2 km/h (1 Bft) O-SO 112 0 min 0,000 mm 0 W/m 3,2 C 4,7 C 8,0 km/h (2 Bft) 98 %
11.12.2017 07:10 4,8 C 4,7 C 4,8 C 91 % 984,5 hPa 0,0 l/m 1,6 km/h (1 Bft) O 90 0 min 0,000 mm 0 W/m 3,5 C 4,8 C 9,7 km/h (2 Bft) 97 %
11.12.2017 07:20 4,9 C 4,8 C 4,9 C 90 % 984,5 hPa 0,0 l/m 1,6 km/h (1 Bft) O-SO 112 0 min 0,000 mm 0 W/m 3,4 C 4,9 C 8,0 km/h (2 Bft) 98 %
11.12.2017 07:30 4,9 C 4,9 C 4,9 C 90 % 984,7 hPa 0,2 l/m 1,6 km/h (1 Bft) O-SO 112 0 min 0,000 mm 0 W/m 3,4 C 4,9 C 8,0 km/h (2 Bft) 97 %
11.12.2017 07:40 4,8 C 4,8 C 4,9 C 91 % 984,6 hPa 0,4 l/m 4,8 km/h (1 Bft) O-SO 112 0 min 0,000 mm 0 W/m 3,5 C 4,8 C 11,3 km/h (2 Bft) 98 %
11.12.2017 07:50 4,8 C 4,8 C 4,8 C 91 % 984,5 hPa 0,2 l/m 4,8 km/h (1 Bft) SO 135 0 min 0,000 mm 0 W/m 3,5 C 4,8 C 12,9 km/h (3 Bft) 98 %
11.12.2017 08:00 4,7 C 4,7 C 4,8 C 91 % 984,0 hPa 0,4 l/m 1,6 km/h (1 Bft) O-SO 112 0 min 0,000 mm 0 W/m 3,4 C 4,7 C 11,3 km/h (2 Bft) 98 %
11.12.2017 08:10 4,8 C 4,7 C 4,8 C 91 % 984,0 hPa 0,4 l/m 1,6 km/h (1 Bft) O 90 0 min 0,000 mm 0 W/m 3,5 C 4,8 C 9,7 km/h (2 Bft) 98 %
11.12.2017 08:20 4,8 C 4,8 C 4,8 C 91 % 983,8 hPa 0,4 l/m 1,6 km/h (1 Bft) O 90 0 min 0,000 mm 0 W/m 3,5 C 4,8 C 8,0 km/h (2 Bft) 98 %
11.12.2017 08:30 4,9 C 4,8 C 4,9 C 90 % 983,7 hPa 0,4 l/m 1,6 km/h (1 Bft) O 90 0 min 0,000 mm 0 W/m 3,4 C 4,9 C 6,4 km/h (2 Bft) 97 %
11.12.2017 08:40 4,9 C 4,9 C 4,9 C 90 % 983,4 hPa 0,4 l/m 3,2 km/h (1 Bft) O-SO 112 0 min 0,000 mm 0 W/m 3,4 C 4,9 C 17,7 km/h (3 Bft) 98 %
11.12.2017 08:50 5,0 C 4,9 C 5,0 C 90 % 983,2 hPa 0,4 l/m 3,2 km/h (1 Bft) O 90 0 min 0,000 mm 5 W/m 3,5 C 5,0 C 11,3 km/h (2 Bft) 98 %
11.12.2017 09:00 5,0 C 5,0 C 5,0 C 91 % 983,6 hPa 0,4 l/m 3,2 km/h (1 Bft) O-SO 112 0 min 0,000 mm 5 W/m 3,7 C 5,0 C 9,7 km/h (2 Bft) 98 %
11.12.2017 09:10 5,1 C 4,9 C 5,1 C 91 % 983,5 hPa 0,4 l/m 1,6 km/h (1 Bft) O 90 0 min 0,000 mm 5 W/m 3,8 C 5,1 C 9,7 km/h (2 Bft) 97 %
11.12.2017 09:20 5,1 C 5,0 C 5,1 C 91 % 983,4 hPa 0,6 l/m 1,6 km/h (1 Bft) O-SO 112 0 min 0,000 mm 7 W/m 3,8 C 5,1 C 8,0 km/h (2 Bft) 98 %
11.12.2017 09:30 5,0 C 5,0 C 5,1 C 90 % 983,4 hPa 0,6 l/m 3,2 km/h (1 Bft) SO 135 0 min 0,000 mm 9 W/m 3,5 C 5,0 C 14,5 km/h (3 Bft) 97 %
11.12.2017 09:40 5,0 C 4,9 C 5,0 C 90 % 983,5 hPa 0,4 l/m 4,8 km/h (1 Bft) SO 135 0 min 0,000 mm 11 W/m 3,5 C 5,0 C 14,5 km/h (3 Bft) 98 %
11.12.2017 09:50 5,0 C 5,0 C 5,1 C 90 % 983,5 hPa 0,6 l/m 4,8 km/h (1 Bft) SO 135 0 min 0,000 mm 11 W/m 3,5 C 5,0 C 11,3 km/h (2 Bft) 98 %
11.12.2017 10:00 5,1 C 5,0 C 5,1 C 96 % 983,4 hPa 0,6 l/m 6,4 km/h (2 Bft) SO 135 0 min 0,000 mm 11 W/m 4,5 C 5,1 C 16,1 km/h (3 Bft) 97 %
11.12.2017 10:10 5,1 C 5,1 C 5,1 C 91 % 983,0 hPa 0,6 l/m 4,8 km/h (1 Bft) SO 135 0 min 0,000 mm 11 W/m 3,8 C 5,1 C 16,1 km/h (3 Bft) 98 %
11.12.2017 10:20 5,2 C 5,1 C 5,2 C 91 % 982,8 hPa 0,4 l/m 6,4 km/h (2 Bft) O-SO 112 0 min 0,000 mm 14 W/m 3,9 C 5,2 C 16,1 km/h (3 Bft) 97 %
11.12.2017 10:30 5,3 C 5,2 C 5,3 C 91 % 982,6 hPa 0,4 l/m 3,2 km/h (1 Bft) O-SO 112 0 min 0,000 mm 16 W/m 4,0 C 5,3 C 11,3 km/h (2 Bft) 97 %
11.12.2017 10:40 5,4 C 5,3 C 5,4 C 91 % 982,5 hPa 0,4 l/m 3,2 km/h (1 Bft) O-SO 112 0 min 0,000 mm 19 W/m 4,1 C 5,4 C 11,3 km/h (2 Bft) 97 %
11.12.2017 10:50 5,5 C 5,4 C 5,5 C 91 % 982,3 hPa 0,4 l/m 4,8 km/h (1 Bft) SO 135 0 min 0,000 mm 19 W/m 4,2 C 5,5 C 16,1 km/h (3 Bft) 98 %
11.12.2017 11:00 5,6 C 5,5 C 5,6 C 91 % 982,1 hPa 0,4 l/m 8,0 km/h (2 Bft) O-SO 112 0 min 0,000 mm 21 W/m 4,2 C 4,2 C 22,5 km/h (4 Bft) 98 %
11.12.2017 11:10 5,7 C 5,6 C 5,7 C 91 % 981,9 hPa 0,4 l/m 3,2 km/h (1 Bft) SO 135 0 min 0,000 mm 25 W/m 4,3 C 5,7 C 14,5 km/h (3 Bft) 97 %
11.12.2017 11:20 5,8 C 5,7 C 5,8 C 91 % 981,6 hPa 0,2 l/m 3,2 km/h (1 Bft) O-SO 112 0 min 0,000 mm 33 W/m 4,4 C 5,8 C 16,1 km/h (3 Bft) 98 %
11.12.2017 11:30 5,8 C 5,8 C 5,8 C 91 % 981,6 hPa 0,1 l/m 6,4 km/h (2 Bft) O-SO 112 0 min 0,000 mm 33 W/m 4,4 C 5,8 C 17,7 km/h (3 Bft) 97 %
11.12.2017 11:40 5,9 C 5,8 C 5,9 C 91 % 981,6 hPa 0,2 l/m 1,6 km/h (1 Bft) SO 135 0 min 0,000 mm 32 W/m 4,5 C 5,9 C 11,3 km/h (2 Bft) 98 %
11.12.2017 11:50 5,9 C 5,9 C 5,9 C 90 % 982,0 hPa 0,1 l/m 1,6 km/h (1 Bft) S-SW 202 0 min 0,000 mm 28 W/m 4,4 C 5,9 C 8,0 km/h (2 Bft) 97 %
11.12.2017 12:00 6,0 C 5,9 C 6,0 C 90 % 982,0 hPa 0,6 l/m 0,0 km/h (0 Bft) SO 135 0 min 0,025 mm 21 W/m 4,5 C 6,0 C 6,4 km/h (2 Bft) 98 %
11.12.2017 12:10 6,1 C 5,9 C 6,1 C 90 % 982,1 hPa 0,2 l/m 0,0 km/h (0 Bft) SO 135 0 min 0,000 mm 23 W/m 4,6 C 6,1 C 6,4 km/h (2 Bft) 98 %
11.12.2017 12:20 5,9 C 5,9 C 6,1 C 90 % 981,5 hPa 0,4 l/m 4,8 km/h (1 Bft) O-SO 112 0 min 0,000 mm 19 W/m 4,4 C 5,9 C 11,3 km/h (2 Bft) 97 %
11.12.2017 12:30 5,9 C 5,9 C 5,9 C 91 % 981,5 hPa 0,6 l/m 3,2 km/h (1 Bft) O 90 0 min 0,000 mm 21 W/m 4,5 C 5,9 C 11,3 km/h (2 Bft) 98 %
11.12.2017 12:40 5,8 C 5,8 C 5,9 C 91 % 981,1 hPa 0,2 l/m 3,2 km/h (1 Bft) O 90 0 min 0,000 mm 26 W/m 4,4 C 5,8 C 8,0 km/h (2 Bft) 98 %
11.12.2017 12:50 5,7 C 5,7 C 5,8 C 91 % 980,7 hPa 0,0 l/m 3,2 km/h (1 Bft) O-SO 112 0 min 0,000 mm 26 W/m 4,3 C 5,7 C 9,7 km/h (2 Bft) 98 %
11.12.2017 13:00 5,6 C 5,6 C 5,7 C 91 % 980,7 hPa 0,2 l/m 3,2 km/h (1 Bft) SO 135 0 min 0,000 mm 26 W/m 4,2 C 5,6 C 14,5 km/h (3 Bft) 88 %
11.12.2017 13:10 5,6 C 5,6 C 5,6 C 91 % 980,7 hPa 0,0 l/m 1,6 km/h (1 Bft) SO 135 0 min 0,000 mm 32 W/m 4,2 C 5,6 C 9,7 km/h (2 Bft) 96 %
11.12.2017 13:20 5,7 C 5,6 C 5,7 C 91 % 980,7 hPa 0,0 l/m 0,0 km/h (0 Bft) N-NW 337 0 min 0,000 mm 33 W/m 4,3 C 5,7 C 4,8 km/h (1 Bft) 98 %
11.12.2017 13:30 5,8 C 5,7 C 5,8 C 91 % 980,9 hPa 0,0 l/m 0,0 km/h (0 Bft) N 0 0 min 0,000 mm 35 W/m 4,4 C 5,8 C 0,0 km/h (0 Bft) 97 %
11.12.2017 13:40 5,9 C 5,8 C 5,9 C 91 % 981,1 hPa 0,0 l/m 0,0 km/h (0 Bft) N 0 0 min 0,000 mm 26 W/m 4,5 C 5,9 C 0,0 km/h (0 Bft) 97 %
11.12.2017 13:50 6,0 C 5,9 C 6,0 C 91 % 981,3 hPa 0,2 l/m 0,0 km/h (0 Bft) N 0 0 min 0,000 mm 23 W/m 4,6 C 6,0 C 0,0 km/h (0 Bft) 98 %
11.12.2017 14:00 6,0 C 6,0 C 6,0 C 91 % 981,4 hPa 0,0 l/m 0,0 km/h (0 Bft) N 0 0 min 0,000 mm 23 W/m 4,6 C 6,0 C 0,0 km/h (0 Bft) 98 %
11.12.2017 14:10 5,9 C 5,9 C 6,0 C 91 % 981,6 hPa 0,4 l/m 1,6 km/h (1 Bft) NW 315 0 min 0,000 mm 19 W/m 4,5 C 5,9 C 6,4 km/h (2 Bft) 98 %
11.12.2017 14:20 5,7 C 5,7 C 5,8 C 91 % 981,7 hPa 0,0 l/m 0,0 km/h (0 Bft) O-NO 67 0 min 0,000 mm 18 W/m 4,3 C 5,7 C 3,2 km/h (1 Bft) 97 %
11.12.2017 14:30 5,6 C 5,6 C 5,7 C 91 % 981,7 hPa 0,2 l/m 0,0 km/h (0 Bft) S 180 0 min 0,000 mm 14 W/m 4,2 C 5,6 C 6,4 km/h (2 Bft) 97 %
11.12.2017 14:40 5,6 C 5,6 C 5,6 C 90 % 981,8 hPa 0,6 l/m 0,0 km/h (0 Bft) S-SO 157 0 min 0,000 mm 11 W/m 4,1 C 5,6 C 4,8 km/h (1 Bft) 99 %
11.12.2017 14:50 5,5 C 5,5 C 5,6 C 91 % 982,0 hPa 0,4 l/m 1,6 km/h (1 Bft) S-SW 202 0 min 0,000 mm 14 W/m 4,2 C 5,5 C 6,4 km/h (2 Bft) 98 %
11.12.2017 15:00 5,3 C 5,3 C 5,5 C 91 % 982,5 hPa 0,4 l/m 3,2 km/h (1 Bft) SW 225 0 min 0,000 mm 16 W/m 4,0 C 5,3 C 8,0 km/h (2 Bft) 99 %
11.12.2017 15:10 5,2 C 5,2 C 5,3 C 90 % 982,7 hPa 0,4 l/m 4,8 km/h (1 Bft) S-SW 202 0 min 0,000 mm 14 W/m 3,7 C 5,2 C 16,1 km/h (3 Bft) 86 %
11.12.2017 15:20 5,3 C 5,2 C 5,3 C 90 % 983,0 hPa 0,2 l/m 4,8 km/h (1 Bft) S-SO 157 0 min 0,000 mm 14 W/m 3,8 C 5,3 C 9,7 km/h (2 Bft) 99 %
11.12.2017 15:30 5,3 C 5,3 C 5,3 C 90 % 983,1 hPa 0,2 l/m 4,8 km/h (1 Bft) S-SO 157 0 min 0,000 mm 9 W/m 3,8 C 5,3 C 8,0 km/h (2 Bft) 99 %
11.12.2017 15:40 5,4 C 5,3 C 5,4 C 91 % 983,2 hPa 0,2 l/m 3,2 km/h (1 Bft) SO 135 0 min 0,000 mm 7 W/m 4,1 C 5,4 C 8,0 km/h (2 Bft) 97 %
11.12.2017 15:50 5,6 C 5,4 C 5,6 C 91 % 983,3 hPa 0,2 l/m 3,2 km/h (1 Bft) SO 135 0 min 0,000 mm 9 W/m 4,2 C 5,6 C 6,4 km/h (2 Bft) 97 %
11.12.2017 16:00 5,7 C 5,6 C 5,7 C 90 % 983,6 hPa 0,1 l/m 3,2 km/h (1 Bft) S 180 0 min 0,000 mm 5 W/m 4,2 C 5,7 C 8,0 km/h (2 Bft) 97 %
11.12.2017 16:10 5,6 C 5,6 C 5,7 C 90 % 984,0 hPa 0,0 l/m 0,0 km/h (0 Bft) S 180 0 min 0,000 mm 0 W/m 4,1 C 5,6 C 4,8 km/h (1 Bft) 98 %
11.12.2017 16:20 5,6 C 5,6 C 5,6 C 90 % 984,1 hPa 0,2 l/m 4,8 km/h (1 Bft) S 180 0 min 0,000 mm 0 W/m 4,1 C 5,6 C 8,0 km/h (2 Bft) 97 %
11.12.2017 16:30 5,7 C 5,6 C 5,7 C 90 % 983,9 hPa 0,2 l/m 6,4 km/h (2 Bft) SO 135 0 min 0,000 mm 0 W/m 4,2 C 5,7 C 9,7 km/h (2 Bft) 98 %
11.12.2017 16:40 5,8 C 5,7 C 5,8 C 91 % 983,8 hPa 0,0 l/m 6,4 km/h (2 Bft) SO 135 0 min 0,000 mm 0 W/m 4,4 C 5,8 C 9,7 km/h (2 Bft) 98 %
11.12.2017 16:50 5,8 C 5,8 C 5,8 C 91 % 983,8 hPa 0,0 l/m 4,8 km/h (1 Bft) SO 135 0 min 0,000 mm 0 W/m 4,4 C 5,8 C 14,5 km/h (3 Bft) 98 %
11.12.2017 17:00 5,8 C 5,8 C 5,8 C 91 % 983,5 hPa 0,2 l/m 8,0 km/h (2 Bft) SO 135 0 min 0,000 mm 0 W/m 4,4 C 4,4 C 16,1 km/h (3 Bft) 97 %
11.12.2017 17:10 5,8 C 5,8 C 5,8 C 91 % 983,8 hPa 0,0 l/m 8,0 km/h (2 Bft) SO 135 0 min 0,000 mm 0 W/m 4,4 C 4,4 C 16,1 km/h (3 Bft) 97 %
11.12.2017 17:20 5,8 C 5,8 C 5,8 C 91 % 983,6 hPa 0,0 l/m 8,0 km/h (2 Bft) SO 135 0 min 0,000 mm 0 W/m 4,4 C 4,4 C 17,7 km/h (3 Bft) 98 %
11.12.2017 17:30 5,8 C 5,8 C 5,8 C 91 % 983,9 hPa 0,0 l/m 8,0 km/h (2 Bft) S-SO 157 0 min 0,000 mm 0 W/m 4,4 C 4,4 C 16,1 km/h (3 Bft) 97 %
11.12.2017 17:40 5,8 C 5,8 C 5,8 C 91 % 984,2 hPa 0,0 l/m 8,0 km/h (2 Bft) SO 135 0 min 0,000 mm 0 W/m 4,4 C 4,4 C 17,7 km/h (3 Bft) 98 %
11.12.2017 17:50 5,8 C 5,8 C 5,8 C 91 % 984,3 hPa 0,0 l/m 8,0 km/h (2 Bft) SO 135 0 min 0,000 mm 0 W/m 4,4 C 4,4 C 16,1 km/h (3 Bft) 97 %
11.12.2017 18:00 5,7 C 5,7 C 5,8 C 90 % 984,2 hPa 0,0 l/m 6,4 km/h (2 Bft) SO 135 0 min 0,000 mm 0 W/m 4,2 C 5,7 C 16,1 km/h (3 Bft) 97 %
11.12.2017 18:10 5,8 C 5,7 C 5,8 C 91 % 984,0 hPa 0,0 l/m 6,4 km/h (2 Bft) SO 135 0 min 0,000 mm 0 W/m 4,4 C 5,8 C 19,3 km/h (3 Bft) 97 %
11.12.2017 18:20 5,8 C 5,7 C 5,8 C 91 % 984,3 hPa 0,0 l/m 8,0 km/h (2 Bft) SO 135 0 min 0,000 mm 0 W/m 4,4 C 4,4 C 16,1 km/h (3 Bft) 97 %
11.12.2017 18:30 5,7 C 5,7 C 5,8 C 91 % 984,3 hPa 0,0 l/m 8,0 km/h (2 Bft) S-SO 157 0 min 0,000 mm 0 W/m 4,3 C 4,3 C 16,1 km/h (3 Bft) 98 %
11.12.2017 18:40 5,7 C 5,6 C 5,8 C 90 % 984,5 hPa 0,0 l/m 6,4 km/h (2 Bft) S-SO 157 0 min 0,000 mm 0 W/m 4,2 C 5,7 C 14,5 km/h (3 Bft) 98 %
11.12.2017 18:50 5,7 C 5,7 C 5,7 C 90 % 984,5 hPa 0,0 l/m 6,4 km/h (2 Bft) SO 135 0 min 0,000 mm 0 W/m 4,2 C 5,7 C 16,1 km/h (3 Bft) 97 %
11.12.2017 19:00 5,7 C 5,7 C 5,7 C 91 % 984,3 hPa 0,0 l/m 8,0 km/h (2 Bft) SO 135 0 min 0,000 mm 0 W/m 4,3 C 4,3 C 17,7 km/h (3 Bft) 98 %
11.12.2017 19:10 5,8 C 5,7 C 5,8 C 91 % 984,7 hPa 0,0 l/m 8,0 km/h (2 Bft) SO 135 0 min 0,000 mm 0 W/m 4,4 C 4,4 C 17,7 km/h (3 Bft) 97 %
11.12.2017 19:20 5,8 C 5,8 C 5,8 C 91 % 984,7 hPa 0,0 l/m 8,0 km/h (2 Bft) S-SO 157 0 min 0,000 mm 0 W/m 4,4 C 4,4 C 19,3 km/h (3 Bft) 97 %
11.12.2017 19:30 5,8 C 5,8 C 5,8 C 91 % 985,1 hPa 0,0 l/m 11,3 km/h (2 Bft) SO 135 0 min 0,000 mm 0 W/m 4,4 C 2,1 C 24,1 km/h (4 Bft) 97 %
11.12.2017 19:40 5,9 C 5,8 C 5,9 C 91 % 985,1 hPa 0,0 l/m 11,3 km/h (2 Bft) SO 135 0 min 0,000 mm 0 W/m 4,5 C 2,2 C 20,9 km/h (4 Bft) 98 %
11.12.2017 19:50 5,9 C 5,9 C 6,0 C 91 % 985,2 hPa 0,0 l/m 11,3 km/h (2 Bft) SO 135 0 min 0,000 mm 0 W/m 4,5 C 2,2 C 19,3 km/h (3 Bft) 97 %
11.12.2017 20:00 5,9 C 5,9 C 5,9 C 91 % 985,2 hPa 0,0 l/m 12,9 km/h (3 Bft) S-SO 157 0 min 0,000 mm 0 W/m 4,5 C 1,3 C 24,1 km/h (4 Bft) 98 %
11.12.2017 20:10 5,9 C 5,9 C 5,9 C 91 % 985,2 hPa 0,0 l/m 11,3 km/h (2 Bft) S-SO 157 0 min 0,000 mm 0 W/m 4,5 C 2,2 C 22,5 km/h (4 Bft) 97 %
11.12.2017 20:20 5,9 C 5,9 C 5,9 C 90 % 985,3 hPa 0,0 l/m 11,3 km/h (2 Bft) S-SO 157 0 min 0,000 mm 0 W/m 4,4 C 2,2 C 27,4 km/h (4 Bft) 96 %
11.12.2017 20:30 5,9 C 5,9 C 5,9 C 90 % 985,4 hPa 0,0 l/m 14,5 km/h (3 Bft) S-SO 157 0 min 0,000 mm 0 W/m 4,4 C 0,4 C 30,6 km/h (5 Bft) 98 %
11.12.2017 20:40 5,9 C 5,9 C 5,9 C 89 % 985,5 hPa 0,0 l/m 19,2 km/h (3 Bft) S-SO 152 0 min 0,000 mm 0 W/m 4,2 C -1,7 C 38,6 km/h (5 Bft) 100 %
11.12.2017 20:50 5,9 C 5,9 C 5,9 C 89 % 985,6 hPa 0,0 l/m 15,4 km/h (3 Bft) SO 144 0 min 0,000 mm 0 W/m 4,2 C -0,0 C 32,2 km/h (5 Bft) 100 %
11.12.2017 21:00 6,0 C 5,9 C 6,0 C 89 % 985,6 hPa 0,0 l/m 16,5 km/h (3 Bft) S 177 0 min 0,000 mm 0 W/m 4,3 C -0,4 C 35,4 km/h (5 Bft) 100 %
11.12.2017 21:10 6,0 C 5,9 C 6,0 C 89 % 985,8 hPa 0,0 l/m 14,5 km/h (3 Bft) S-SO 157 0 min 0,000 mm 0 W/m 4,3 C 0,5 C 30,6 km/h (5 Bft) 98 %
11.12.2017 21:20 5,9 C 5,9 C 6,0 C 88 % 985,8 hPa 0,0 l/m 12,9 km/h (3 Bft) S-SO 157 0 min 0,000 mm 0 W/m 4,1 C 1,3 C 24,1 km/h (4 Bft) 97 %
11.12.2017 21:30 5,9 C 5,9 C 5,9 C 88 % 985,9 hPa 0,0 l/m 11,3 km/h (2 Bft) S-SO 157 0 min 0,000 mm 0 W/m 4,1 C 2,2 C 22,5 km/h (4 Bft) 98 %
11.12.2017 21:40 5,9 C 5,9 C 5,9 C 88 % 985,8 hPa 0,0 l/m 11,3 km/h (2 Bft) S-SO 157 0 min 0,000 mm 0 W/m 4,1 C 2,2 C 25,7 km/h (4 Bft) 98 %
11.12.2017 21:50 5,9 C 5,9 C 5,9 C 87 % 985,8 hPa 0,0 l/m 11,3 km/h (2 Bft) S-SO 157 0 min 0,000 mm 0 W/m 3,9 C 2,2 C 27,4 km/h (4 Bft) 97 %
11.12.2017 22:00 5,9 C 5,9 C 5,9 C 87 % 986,1 hPa 0,0 l/m 11,3 km/h (2 Bft) S-SO 157 0 min 0,025 mm 0 W/m 3,9 C 2,2 C 29,0 km/h (5 Bft) 98 %
11.12.2017 22:10 5,9 C 5,9 C 5,9 C 87 % 986,3 hPa 0,0 l/m 11,3 km/h (2 Bft) S-SO 157 0 min 0,000 mm 0 W/m 3,9 C 2,2 C 22,5 km/h (4 Bft) 97 %
11.12.2017 22:20 5,9 C 5,9 C 5,9 C 87 % 986,5 hPa 0,0 l/m 11,3 km/h (2 Bft) S-SO 157 0 min 0,000 mm 0 W/m 3,9 C 2,2 C 24,1 km/h (4 Bft) 97 %
11.12.2017 22:30 5,9 C 5,8 C 5,9 C 87 % 986,5 hPa 0,0 l/m 11,3 km/h (2 Bft) S-SO 157 0 min 0,000 mm 0 W/m 3,9 C 2,2 C 25,7 km/h (4 Bft) 98 %
11.12.2017 22:40 5,9 C 5,9 C 5,9 C 86 % 986,7 hPa 0,0 l/m 11,3 km/h (2 Bft) SO 135 0 min 0,000 mm 0 W/m 3,7 C 2,2 C 27,4 km/h (4 Bft) 98 %
11.12.2017 22:50 6,0 C 5,9 C 6,0 C 86 % 986,8 hPa 0,0 l/m 12,9 km/h (3 Bft) S-SO 157 0 min 0,000 mm 0 W/m 3,8 C 1,4 C 32,2 km/h (5 Bft) 98 %
11.12.2017 23:00 5,9 C 5,9 C 6,0 C 86 % 986,9 hPa 0,0 l/m 11,3 km/h (2 Bft) S-SO 157 0 min 0,025 mm 0 W/m 3,7 C 2,2 C 22,5 km/h (4 Bft) 97 %
11.12.2017 23:10 6,0 C 5,9 C 6,0 C 86 % 987,0 hPa 0,0 l/m 12,9 km/h (3 Bft) S-SO 157 0 min 0,000 mm 0 W/m 3,8 C 1,4 C 25,7 km/h (4 Bft) 97 %
11.12.2017 23:20 6,1 C 6,0 C 6,1 C 85 % 987,2 hPa 0,0 l/m 12,9 km/h (3 Bft) S-SO 157 0 min 0,000 mm 0 W/m 3,8 C 1,5 C 25,7 km/h (4 Bft) 97 %
11.12.2017 23:30 6,1 C 6,1 C 6,1 C 85 % 987,4 hPa 0,0 l/m 11,3 km/h (2 Bft) S-SO 157 0 min 0,000 mm 0 W/m 3,8 C 2,4 C 29,0 km/h (5 Bft) 98 %
11.12.2017 23:40 6,0 C 6,0 C 6,1 C 85 % 987,5 hPa 0,0 l/m 11,3 km/h (2 Bft) S-SO 157 0 min 0,000 mm 0 W/m 3,7 C 2,3 C 24,1 km/h (4 Bft) 97 %
11.12.2017 23:50 6,0 C 6,0 C 6,0 C 85 % 987,7 hPa 0,0 l/m 12,9 km/h (3 Bft) S-SO 157 0 min 0,000 mm 0 W/m 3,7 C 1,4 C 27,4 km/h (4 Bft) 98 %
_ Min-Zeit 03:40 03:40 03:40 23:20 12:50 - 02:50 - - - - - 03:40 20:40 02:50 15:10
Minimum _ 3,5 C 3,5 C 3,6 C 85 % 980,7 hPa - 0,0 km/h (0 Bft) - - - - - 2,0 C -1,7 C 0,0 km/h (0 Bft) 86 %
_ Max-Zeit 12:10 23:30 12:10 10:00 23:50 09:20 20:40 - - 00:00 00:00 13:30 13:50 12:10 20:40 00:10
Maximum _ 6,1 C 6,1 C 6,1 C 96 % 987,7 hPa 0,6 l/m 19,2 km/h
S-SO (3 Bft)
- - 0 min 0,025 mm 35 W/m 4,6 C 6,1 C 38,6 km/h
S (5 Bft)
100 %
Durchschnitt _ 5,2 C 5,1 C 5,2 C 90 % 984,6 hPa #17,1 l/m 5,2 km/h (1 Bft) S-SO - #0 min. #0,125 mm 18 W/m 3,6 C 4,2 C 13,1 km/h (3 Bft) 98 %
PRIVATE WETTERSTATION BILLIGHEIM-ALLFELD - www.neckar-odenwald-wetter.de - Holger Sonntag